sensor_id;sensor_type;location;lat;lon;timestamp;P1;durP1;ratioP1;P2;durP2;ratioP2
65358;SDS011;52491;45.900;6.346;2023-01-24T00:01:16;5.47;;;4.45;;
65358;SDS011;52491;45.900;6.346;2023-01-24T00:03:41;5.47;;;4.43;;
65358;SDS011;52491;45.900;6.346;2023-01-24T00:06:07;5.38;;;4.63;;
65358;SDS011;52491;45.900;6.346;2023-01-24T00:08:33;6.30;;;5.07;;
65358;SDS011;52491;45.900;6.346;2023-01-24T00:11:01;5.13;;;4.40;;
65358;SDS011;52491;45.900;6.346;2023-01-24T00:13:29;6.15;;;5.15;;
65358;SDS011;52491;45.900;6.346;2023-01-24T00:16:02;6.30;;;5.22;;
65358;SDS011;52491;45.900;6.346;2023-01-24T00:18:29;6.20;;;5.18;;
65358;SDS011;52491;45.900;6.346;2023-01-24T00:21:11;7.28;;;5.63;;
65358;SDS011;52491;45.900;6.346;2023-01-24T00:23:42;5.85;;;4.88;;
65358;SDS011;52491;45.900;6.346;2023-01-24T00:26:10;6.88;;;4.97;;
65358;SDS011;52491;45.900;6.346;2023-01-24T00:28:37;6.45;;;4.70;;
65358;SDS011;52491;45.900;6.346;2023-01-24T00:31:02;5.88;;;5.00;;
65358;SDS011;52491;45.900;6.346;2023-01-24T00:33:29;6.43;;;5.07;;
65358;SDS011;52491;45.900;6.346;2023-01-24T00:35:54;5.70;;;5.10;;
65358;SDS011;52491;45.900;6.346;2023-01-24T00:38:20;7.00;;;5.57;;
65358;SDS011;52491;45.900;6.346;2023-01-24T00:40:47;6.20;;;5.05;;
65358;SDS011;52491;45.900;6.346;2023-01-24T00:43:13;6.97;;;4.80;;
65358;SDS011;52491;45.900;6.346;2023-01-24T00:45:39;6.13;;;4.82;;
65358;SDS011;52491;45.900;6.346;2023-01-24T00:48:05;6.75;;;5.15;;
65358;SDS011;52491;45.900;6.346;2023-01-24T00:50:32;5.63;;;4.75;;
65358;SDS011;52491;45.900;6.346;2023-01-24T00:52:59;7.05;;;5.40;;
65358;SDS011;52491;45.900;6.346;2023-01-24T00:55:25;6.03;;;4.38;;
65358;SDS011;52491;45.900;6.346;2023-01-24T00:57:51;6.30;;;4.28;;
65358;SDS011;52491;45.900;6.346;2023-01-24T01:00:16;5.85;;;4.50;;
65358;SDS011;52491;45.900;6.346;2023-01-24T01:02:42;6.00;;;4.50;;
65358;SDS011;52491;45.900;6.346;2023-01-24T01:05:08;5.38;;;4.25;;
65358;SDS011;52491;45.900;6.346;2023-01-24T01:07:34;5.45;;;3.97;;
65358;SDS011;52491;45.900;6.346;2023-01-24T01:10:00;5.28;;;4.78;;
65358;SDS011;52491;45.900;6.346;2023-01-24T01:12:26;4.88;;;3.92;;
65358;SDS011;52491;45.900;6.346;2023-01-24T01:14:52;4.82;;;3.95;;
65358;SDS011;52491;45.900;6.346;2023-01-24T01:17:17;5.50;;;3.97;;
65358;SDS011;52491;45.900;6.346;2023-01-24T01:19:43;4.60;;;4.10;;
65358;SDS011;52491;45.900;6.346;2023-01-24T01:22:08;5.40;;;4.32;;
65358;SDS011;52491;45.900;6.346;2023-01-24T01:24:34;5.40;;;4.57;;
65358;SDS011;52491;45.900;6.346;2023-01-24T01:27:00;4.45;;;3.53;;
65358;SDS011;52491;45.900;6.346;2023-01-24T01:29:27;4.15;;;3.75;;
65358;SDS011;52491;45.900;6.346;2023-01-24T01:31:53;5.15;;;4.30;;
65358;SDS011;52491;45.900;6.346;2023-01-24T01:34:19;4.28;;;3.88;;
65358;SDS011;52491;45.900;6.346;2023-01-24T01:36:44;4.00;;;3.53;;
65358;SDS011;52491;45.900;6.346;2023-01-24T01:39:10;3.63;;;3.28;;
65358;SDS011;52491;45.900;6.346;2023-01-24T01:41:36;3.75;;;3.38;;
65358;SDS011;52491;45.900;6.346;2023-01-24T01:47:01;3.47;;;3.17;;
65358;SDS011;52491;45.900;6.346;2023-01-24T01:49:28;3.72;;;3.40;;
65358;SDS011;52491;45.900;6.346;2023-01-24T01:52:01;3.70;;;3.30;;
65358;SDS011;52491;45.900;6.346;2023-01-24T01:54:36;4.50;;;4.05;;
65358;SDS011;52491;45.900;6.346;2023-01-24T01:57:10;3.35;;;3.05;;
65358;SDS011;52491;45.900;6.346;2023-01-24T01:59:40;4.47;;;3.83;;
65358;SDS011;52491;45.900;6.346;2023-01-24T02:02:26;3.83;;;3.42;;
65358;SDS011;52491;45.900;6.346;2023-01-24T02:05:00;5.65;;;3.83;;
65358;SDS011;52491;45.900;6.346;2023-01-24T02:07:29;3.83;;;3.22;;
65358;SDS011;52491;45.900;6.346;2023-01-24T02:09:59;4.40;;;4.00;;
65358;SDS011;52491;45.900;6.346;2023-01-24T02:12:36;3.55;;;3.15;;
65358;SDS011;52491;45.900;6.346;2023-01-24T02:15:04;4.57;;;4.05;;
65358;SDS011;52491;45.900;6.346;2023-01-24T02:17:51;3.53;;;3.20;;
65358;SDS011;52491;45.900;6.346;2023-01-24T02:28:32;4.45;;;4.05;;
65358;SDS011;52491;45.900;6.346;2023-01-24T02:30:58;5.10;;;3.92;;
65358;SDS011;52491;45.900;6.346;2023-01-24T02:33:25;5.43;;;4.28;;
65358;SDS011;52491;45.900;6.346;2023-01-24T02:35:57;4.40;;;3.35;;
65358;SDS011;52491;45.900;6.346;2023-01-24T02:38:43;4.00;;;3.53;;
65358;SDS011;52491;45.900;6.346;2023-01-24T02:41:11;5.20;;;3.80;;
65358;SDS011;52491;45.900;6.346;2023-01-24T02:43:43;4.10;;;3.22;;
65358;SDS011;52491;45.900;6.346;2023-01-24T02:46:13;3.83;;;3.25;;
65358;SDS011;52491;45.900;6.346;2023-01-24T02:48:39;4.45;;;3.40;;
65358;SDS011;52491;45.900;6.346;2023-01-24T02:51:04;3.67;;;3.38;;
65358;SDS011;52491;45.900;6.346;2023-01-24T02:53:49;4.95;;;3.83;;
65358;SDS011;52491;45.900;6.346;2023-01-24T02:56:14;5.03;;;3.60;;
65358;SDS011;52491;45.900;6.346;2023-01-24T02:58:59;3.75;;;2.50;;
65358;SDS011;52491;45.900;6.346;2023-01-24T03:01:24;3.75;;;3.08;;
65358;SDS011;52491;45.900;6.346;2023-01-24T03:03:50;3.08;;;2.75;;
65358;SDS011;52491;45.900;6.346;2023-01-24T03:06:17;3.72;;;2.65;;
65358;SDS011;52491;45.900;6.346;2023-01-24T03:08:43;4.00;;;2.95;;
65358;SDS011;52491;45.900;6.346;2023-01-24T03:11:10;2.72;;;2.53;;
65358;SDS011;52491;45.900;6.346;2023-01-24T03:13:36;3.35;;;3.05;;
65358;SDS011;52491;45.900;6.346;2023-01-24T03:16:22;3.42;;;3.13;;
65358;SDS011;52491;45.900;6.346;2023-01-24T03:19:06;4.47;;;3.60;;
65358;SDS011;52491;45.900;6.346;2023-01-24T03:21:51;3.22;;;2.70;;
65358;SDS011;52491;45.900;6.346;2023-01-24T03:24:35;3.17;;;2.88;;
65358;SDS011;52491;45.900;6.346;2023-01-24T03:27:19;4.07;;;2.92;;
65358;SDS011;52491;45.900;6.346;2023-01-24T03:30:03;4.35;;;3.72;;
65358;SDS011;52491;45.900;6.346;2023-01-24T03:32:48;3.75;;;3.35;;
65358;SDS011;52491;45.900;6.346;2023-01-24T03:35:33;3.10;;;2.80;;
65358;SDS011;52491;45.900;6.346;2023-01-24T03:37:59;3.28;;;2.97;;
65358;SDS011;52491;45.900;6.346;2023-01-24T03:40:43;3.10;;;2.90;;
65358;SDS011;52491;45.900;6.346;2023-01-24T03:43:09;3.70;;;3.25;;
65358;SDS011;52491;45.900;6.346;2023-01-24T03:45:36;3.78;;;3.25;;
65358;SDS011;52491;45.900;6.346;2023-01-24T03:48:03;3.53;;;2.83;;
65358;SDS011;52491;45.900;6.346;2023-01-24T03:50:35;4.78;;;3.85;;
65358;SDS011;52491;45.900;6.346;2023-01-24T03:53:22;3.35;;;3.05;;
65358;SDS011;52491;45.900;6.346;2023-01-24T03:55:55;4.30;;;3.75;;
65358;SDS011;52491;45.900;6.346;2023-01-24T03:58:22;3.85;;;3.55;;
65358;SDS011;52491;45.900;6.346;2023-01-24T04:00:49;4.18;;;3.75;;
65358;SDS011;52491;45.900;6.346;2023-01-24T04:03:15;3.58;;;3.05;;
65358;SDS011;52491;45.900;6.346;2023-01-24T04:05:40;4.13;;;3.28;;
65358;SDS011;52491;45.900;6.346;2023-01-24T04:08:06;3.72;;;3.42;;
65358;SDS011;52491;45.900;6.346;2023-01-24T04:10:32;4.15;;;3.70;;
65358;SDS011;52491;45.900;6.346;2023-01-24T04:12:58;4.22;;;3.83;;
65358;SDS011;52491;45.900;6.346;2023-01-24T04:15:25;4.07;;;3.05;;
65358;SDS011;52491;45.900;6.346;2023-01-24T04:17:55;3.75;;;3.17;;
65358;SDS011;52491;45.900;6.346;2023-01-24T04:20:25;4.05;;;3.72;;
65358;SDS011;52491;45.900;6.346;2023-01-24T04:22:52;4.75;;;3.72;;
65358;SDS011;52491;45.900;6.346;2023-01-24T04:25:18;3.90;;;3.60;;
65358;SDS011;52491;45.900;6.346;2023-01-24T04:27:44;3.92;;;3.17;;
65358;SDS011;52491;45.900;6.346;2023-01-24T04:30:10;3.50;;;3.20;;
65358;SDS011;52491;45.900;6.346;2023-01-24T04:32:37;3.50;;;2.78;;
65358;SDS011;52491;45.900;6.346;2023-01-24T04:35:04;3.92;;;3.42;;
65358;SDS011;52491;45.900;6.346;2023-01-24T04:37:30;4.22;;;2.85;;
65358;SDS011;52491;45.900;6.346;2023-01-24T04:39:57;3.45;;;3.15;;
65358;SDS011;52491;45.900;6.346;2023-01-24T04:42:22;3.53;;;3.22;;
65358;SDS011;52491;45.900;6.346;2023-01-24T04:44:48;3.30;;;2.97;;
65358;SDS011;52491;45.900;6.346;2023-01-24T04:47:14;3.65;;;3.35;;
65358;SDS011;52491;45.900;6.346;2023-01-24T04:49:39;3.85;;;3.38;;
65358;SDS011;52491;45.900;6.346;2023-01-24T04:52:11;2.97;;;2.70;;
65358;SDS011;52491;45.900;6.346;2023-01-24T04:54:41;3.53;;;3.22;;
65358;SDS011;52491;45.900;6.346;2023-01-24T04:57:07;5.00;;;3.15;;
65358;SDS011;52491;45.900;6.346;2023-01-24T04:59:35;2.85;;;2.45;;
65358;SDS011;52491;45.900;6.346;2023-01-24T05:02:01;3.50;;;3.20;;
65358;SDS011;52491;45.900;6.346;2023-01-24T05:04:27;2.67;;;2.47;;
65358;SDS011;52491;45.900;6.346;2023-01-24T05:06:52;2.97;;;2.67;;
65358;SDS011;52491;45.900;6.346;2023-01-24T05:09:18;2.90;;;2.55;;
65358;SDS011;52491;45.900;6.346;2023-01-24T05:11:44;2.97;;;2.67;;
65358;SDS011;52491;45.900;6.346;2023-01-24T05:14:09;2.85;;;2.50;;
65358;SDS011;52491;45.900;6.346;2023-01-24T05:16:35;2.90;;;2.42;;
65358;SDS011;52491;45.900;6.346;2023-01-24T05:19:02;2.45;;;2.25;;
65358;SDS011;52491;45.900;6.346;2023-01-24T05:21:28;3.10;;;2.80;;
65358;SDS011;52491;45.900;6.346;2023-01-24T05:23:53;2.63;;;2.42;;
65358;SDS011;52491;45.900;6.346;2023-01-24T05:26:20;3.13;;;2.72;;
65358;SDS011;52491;45.900;6.346;2023-01-24T05:28:47;3.63;;;3.33;;
65358;SDS011;52491;45.900;6.346;2023-01-24T05:31:14;3.55;;;3.22;;
65358;SDS011;52491;45.900;6.346;2023-01-24T05:33:39;2.60;;;2.40;;
65358;SDS011;52491;45.900;6.346;2023-01-24T05:36:08;3.90;;;3.58;;
65358;SDS011;52491;45.900;6.346;2023-01-24T05:38:38;3.10;;;2.63;;
65358;SDS011;52491;45.900;6.346;2023-01-24T05:41:05;3.25;;;2.97;;
65358;SDS011;52491;45.900;6.346;2023-01-24T05:43:32;3.30;;;2.90;;
65358;SDS011;52491;45.900;6.346;2023-01-24T05:46:03;2.80;;;2.60;;
65358;SDS011;52491;45.900;6.346;2023-01-24T05:48:31;4.90;;;3.00;;
65358;SDS011;52491;45.900;6.346;2023-01-24T05:51:00;3.72;;;3.42;;
65358;SDS011;52491;45.900;6.346;2023-01-24T05:53:30;3.08;;;2.78;;
65358;SDS011;52491;45.900;6.346;2023-01-24T05:55:58;5.47;;;3.08;;
65358;SDS011;52491;45.900;6.346;2023-01-24T05:58:26;3.75;;;2.92;;
65358;SDS011;52491;45.900;6.346;2023-01-24T06:00:52;3.35;;;2.92;;
65358;SDS011;52491;45.900;6.346;2023-01-24T06:03:18;3.78;;;3.00;;
65358;SDS011;52491;45.900;6.346;2023-01-24T06:05:54;2.63;;;2.42;;
65358;SDS011;52491;45.900;6.346;2023-01-24T06:08:20;3.60;;;3.28;;
65358;SDS011;52491;45.900;6.346;2023-01-24T06:10:48;4.65;;;3.08;;
65358;SDS011;52491;45.900;6.346;2023-01-24T06:13:15;3.33;;;3.03;;
65358;SDS011;52491;45.900;6.346;2023-01-24T06:15:42;3.22;;;2.92;;
65358;SDS011;52491;45.900;6.346;2023-01-24T06:18:12;3.00;;;2.70;;
65358;SDS011;52491;45.900;6.346;2023-01-24T06:20:42;4.07;;;3.55;;
65358;SDS011;52491;45.900;6.346;2023-01-24T06:23:10;5.53;;;3.15;;
65358;SDS011;52491;45.900;6.346;2023-01-24T06:25:45;5.10;;;2.65;;
65358;SDS011;52491;45.900;6.346;2023-01-24T06:28:10;6.72;;;2.72;;
65358;SDS011;52491;45.900;6.346;2023-01-24T06:30:37;7.28;;;2.88;;
65358;SDS011;52491;45.900;6.346;2023-01-24T06:38:43;3.10;;;2.80;;
65358;SDS011;52491;45.900;6.346;2023-01-24T06:41:14;2.88;;;2.60;;
65358;SDS011;52491;45.900;6.346;2023-01-24T06:43:42;20.35;;;2.92;;
65358;SDS011;52491;45.900;6.346;2023-01-24T06:46:09;4.38;;;3.50;;
65358;SDS011;52491;45.900;6.346;2023-01-24T06:48:36;4.45;;;3.67;;
65358;SDS011;52491;45.900;6.346;2023-01-24T06:51:02;3.38;;;3.08;;
65358;SDS011;52491;45.900;6.346;2023-01-24T06:53:29;3.45;;;2.63;;
65358;SDS011;52491;45.900;6.346;2023-01-24T06:55:54;3.17;;;2.88;;
65358;SDS011;52491;45.900;6.346;2023-01-24T06:58:20;3.05;;;2.80;;
65358;SDS011;52491;45.900;6.346;2023-01-24T07:00:45;3.40;;;2.95;;
65358;SDS011;52491;45.900;6.346;2023-01-24T07:03:11;3.00;;;2.53;;
65358;SDS011;52491;45.900;6.346;2023-01-24T07:05:37;3.53;;;3.22;;
65358;SDS011;52491;45.900;6.346;2023-01-24T07:08:04;4.25;;;3.22;;
65358;SDS011;52491;45.900;6.346;2023-01-24T07:10:31;3.17;;;2.88;;
65358;SDS011;52491;45.900;6.346;2023-01-24T07:12:57;4.93;;;3.33;;
65358;SDS011;52491;45.900;6.346;2023-01-24T07:15:23;4.80;;;4.30;;
65358;SDS011;52491;45.900;6.346;2023-01-24T07:17:49;5.13;;;3.88;;
65358;SDS011;52491;45.900;6.346;2023-01-24T07:20:15;10.30;;;7.70;;
65358;SDS011;52491;45.900;6.346;2023-01-24T07:22:41;8.10;;;6.88;;
65358;SDS011;52491;45.900;6.346;2023-01-24T07:25:11;8.98;;;7.45;;
65358;SDS011;52491;45.900;6.346;2023-01-24T07:27:39;6.78;;;4.97;;
65358;SDS011;52491;45.900;6.346;2023-01-24T07:30:05;7.35;;;6.32;;
65358;SDS011;52491;45.900;6.346;2023-01-24T07:32:31;5.63;;;4.60;;
65358;SDS011;52491;45.900;6.346;2023-01-24T07:34:57;6.15;;;5.53;;
65358;SDS011;52491;45.900;6.346;2023-01-24T07:37:22;7.15;;;6.28;;
65358;SDS011;52491;45.900;6.346;2023-01-24T07:39:48;7.63;;;6.47;;
65358;SDS011;52491;45.900;6.346;2023-01-24T07:42:14;7.38;;;6.53;;
65358;SDS011;52491;45.900;6.346;2023-01-24T07:44:39;5.65;;;4.72;;
65358;SDS011;52491;45.900;6.346;2023-01-24T07:47:05;7.53;;;6.40;;
65358;SDS011;52491;45.900;6.346;2023-01-24T07:49:30;6.70;;;6.00;;
65358;SDS011;52491;45.900;6.346;2023-01-24T07:51:56;7.72;;;6.88;;
65358;SDS011;52491;45.900;6.346;2023-01-24T07:54:22;5.93;;;5.35;;
65358;SDS011;52491;45.900;6.346;2023-01-24T07:56:47;7.05;;;6.35;;
65358;SDS011;52491;45.900;6.346;2023-01-24T07:59:14;7.47;;;6.68;;
65358;SDS011;52491;45.900;6.346;2023-01-24T08:01:39;5.60;;;5.00;;
65358;SDS011;52491;45.900;6.346;2023-01-24T08:04:05;6.93;;;6.00;;
65358;SDS011;52491;45.900;6.346;2023-01-24T08:06:31;7.57;;;6.78;;
65358;SDS011;52491;45.900;6.346;2023-01-24T08:08:56;9.15;;;8.00;;
65358;SDS011;52491;45.900;6.346;2023-01-24T08:11:22;7.38;;;6.13;;
65358;SDS011;52491;45.900;6.346;2023-01-24T08:13:48;5.57;;;5.07;;
65358;SDS011;52491;45.900;6.346;2023-01-24T08:16:15;6.40;;;5.30;;
65358;SDS011;52491;45.900;6.346;2023-01-24T08:18:41;7.88;;;6.55;;
65358;SDS011;52491;45.900;6.346;2023-01-24T08:21:08;7.95;;;6.75;;
65358;SDS011;52491;45.900;6.346;2023-01-24T08:23:34;6.70;;;5.63;;
65358;SDS011;52491;45.900;6.346;2023-01-24T08:26:00;9.73;;;6.45;;
65358;SDS011;52491;45.900;6.346;2023-01-24T08:28:27;7.35;;;6.57;;
65358;SDS011;52491;45.900;6.346;2023-01-24T08:30:56;7.20;;;6.47;;
65358;SDS011;52491;45.900;6.346;2023-01-24T08:33:22;9.15;;;6.80;;
65358;SDS011;52491;45.900;6.346;2023-01-24T08:35:48;8.57;;;7.57;;
65358;SDS011;52491;45.900;6.346;2023-01-24T08:38:14;8.05;;;6.50;;
65358;SDS011;52491;45.900;6.346;2023-01-24T08:40:41;8.25;;;7.22;;
65358;SDS011;52491;45.900;6.346;2023-01-24T08:43:08;8.68;;;6.53;;
65358;SDS011;52491;45.900;6.346;2023-01-24T08:45:34;8.70;;;7.72;;
65358;SDS011;52491;45.900;6.346;2023-01-24T08:47:59;7.35;;;6.55;;
65358;SDS011;52491;45.900;6.346;2023-01-24T08:50:25;8.88;;;7.60;;
65358;SDS011;52491;45.900;6.346;2023-01-24T08:52:55;8.00;;;7.20;;
65358;SDS011;52491;45.900;6.346;2023-01-24T08:55:21;10.45;;;8.15;;
65358;SDS011;52491;45.900;6.346;2023-01-24T08:57:47;9.93;;;8.93;;
65358;SDS011;52491;45.900;6.346;2023-01-24T09:00:13;8.85;;;7.35;;
65358;SDS011;52491;45.900;6.346;2023-01-24T09:02:39;10.32;;;7.78;;
65358;SDS011;52491;45.900;6.346;2023-01-24T09:05:05;7.63;;;6.68;;
65358;SDS011;52491;45.900;6.346;2023-01-24T09:07:32;8.32;;;7.53;;
65358;SDS011;52491;45.900;6.346;2023-01-24T09:10:01;7.75;;;6.95;;
65358;SDS011;52491;45.900;6.346;2023-01-24T09:12:27;7.75;;;7.00;;
65358;SDS011;52491;45.900;6.346;2023-01-24T09:14:52;8.27;;;7.40;;
65358;SDS011;52491;45.900;6.346;2023-01-24T09:17:18;7.20;;;6.50;;
65358;SDS011;52491;45.900;6.346;2023-01-24T09:19:43;8.05;;;7.18;;
65358;SDS011;52491;45.900;6.346;2023-01-24T09:22:09;9.27;;;8.00;;
65358;SDS011;52491;45.900;6.346;2023-01-24T09:24:34;9.95;;;8.05;;
65358;SDS011;52491;45.900;6.346;2023-01-24T09:27:00;8.13;;;7.32;;
65358;SDS011;52491;45.900;6.346;2023-01-24T09:29:25;10.57;;;9.45;;
65358;SDS011;52491;45.900;6.346;2023-01-24T09:31:51;9.68;;;7.90;;
65358;SDS011;52491;45.900;6.346;2023-01-24T09:34:20;9.43;;;7.75;;
65358;SDS011;52491;45.900;6.346;2023-01-24T09:36:47;10.13;;;8.55;;
65358;SDS011;52491;45.900;6.346;2023-01-24T09:39:14;8.52;;;7.68;;
65358;SDS011;52491;45.900;6.346;2023-01-24T09:50:26;8.98;;;8.15;;
65358;SDS011;52491;45.900;6.346;2023-01-24T09:52:53;9.93;;;8.93;;
65358;SDS011;52491;45.900;6.346;2023-01-24T09:55:21;8.77;;;7.85;;
65358;SDS011;52491;45.900;6.346;2023-01-24T09:57:55;8.52;;;7.60;;
65358;SDS011;52491;45.900;6.346;2023-01-24T10:00:28;8.85;;;7.97;;
65358;SDS011;52491;45.900;6.346;2023-01-24T10:03:00;10.13;;;8.35;;
65358;SDS011;52491;45.900;6.346;2023-01-24T10:05:34;7.80;;;6.93;;
65358;SDS011;52491;45.900;6.346;2023-01-24T10:24:16;6.50;;;5.65;;
65358;SDS011;52491;45.900;6.346;2023-01-24T10:26:51;6.72;;;5.47;;
65358;SDS011;52491;45.900;6.346;2023-01-24T10:29:18;5.22;;;4.72;;
65358;SDS011;52491;45.900;6.346;2023-01-24T10:31:55;6.63;;;5.65;;
65358;SDS011;52491;45.900;6.346;2023-01-24T10:39:42;5.57;;;5.05;;
65358;SDS011;52491;45.900;6.346;2023-01-24T10:42:11;6.05;;;5.13;;
65358;SDS011;52491;45.900;6.346;2023-01-24T10:44:48;6.85;;;5.88;;
65358;SDS011;52491;45.900;6.346;2023-01-24T10:50:09;5.68;;;4.65;;
65358;SDS011;52491;45.900;6.346;2023-01-24T10:52:40;5.25;;;4.75;;
65358;SDS011;52491;45.900;6.346;2023-01-24T10:55:39;4.97;;;4.47;;
65358;SDS011;52491;45.900;6.346;2023-01-24T10:58:01;5.50;;;4.57;;
65358;SDS011;52491;45.900;6.346;2023-01-24T11:00:45;5.18;;;4.53;;
65358;SDS011;52491;45.900;6.346;2023-01-24T11:03:17;4.55;;;4.03;;
65358;SDS011;52491;45.900;6.346;2023-01-24T11:05:54;5.63;;;4.07;;
65358;SDS011;52491;45.900;6.346;2023-01-24T11:08:23;5.05;;;4.55;;
65358;SDS011;52491;45.900;6.346;2023-01-24T11:10:57;5.78;;;4.55;;
65358;SDS011;52491;45.900;6.346;2023-01-24T11:19:00;5.57;;;4.47;;
65358;SDS011;52491;45.900;6.346;2023-01-24T11:21:28;4.50;;;4.10;;
65358;SDS011;52491;45.900;6.346;2023-01-24T11:23:59;4.93;;;4.35;;
65358;SDS011;52491;45.900;6.346;2023-01-24T11:26:32;6.25;;;4.65;;
65358;SDS011;52491;45.900;6.346;2023-01-24T11:29:02;4.95;;;4.38;;
65358;SDS011;52491;45.900;6.346;2023-01-24T11:35:03;4.47;;;4.05;;
65358;SDS011;52491;45.900;6.346;2023-01-24T11:37:49;5.32;;;4.53;;
65358;SDS011;52491;45.900;6.346;2023-01-24T11:40:37;5.05;;;3.92;;
65358;SDS011;52491;45.900;6.346;2023-01-24T11:46:05;5.55;;;4.68;;
65358;SDS011;52491;45.900;6.346;2023-01-24T11:48:52;8.93;;;5.45;;
65358;SDS011;52491;45.900;6.346;2023-01-24T12:11:14;6.18;;;4.72;;
65358;SDS011;52491;45.900;6.346;2023-01-24T12:21:37;8.10;;;5.43;;
65358;SDS011;52491;45.900;6.346;2023-01-24T12:24:06;5.45;;;4.47;;
65358;SDS011;52491;45.900;6.346;2023-01-24T12:29:49;5.45;;;4.40;;
65358;SDS011;52491;45.900;6.346;2023-01-24T12:32:28;8.90;;;4.45;;
65358;SDS011;52491;45.900;6.346;2023-01-24T12:38:02;6.13;;;3.70;;
65358;SDS011;52491;45.900;6.346;2023-01-24T12:40:43;7.07;;;4.53;;
65358;SDS011;52491;45.900;6.346;2023-01-24T12:51:59;8.43;;;3.97;;
65358;SDS011;52491;45.900;6.346;2023-01-24T12:54:51;6.88;;;3.60;;
65358;SDS011;52491;45.900;6.346;2023-01-24T12:57:19;4.75;;;3.72;;
65358;SDS011;52491;45.900;6.346;2023-01-24T12:59:48;5.10;;;3.45;;
65358;SDS011;52491;45.900;6.346;2023-01-24T13:13:36;4.03;;;3.25;;
65358;SDS011;52491;45.900;6.346;2023-01-24T13:16:21;5.13;;;3.28;;
65358;SDS011;52491;45.900;6.346;2023-01-24T13:19:06;4.80;;;3.30;;
65358;SDS011;52491;45.900;6.346;2023-01-24T13:25:05;3.75;;;2.85;;
65358;SDS011;52491;45.900;6.346;2023-01-24T13:33:26;3.63;;;3.13;;
65358;SDS011;52491;45.900;6.346;2023-01-24T13:36:03;3.65;;;2.85;;
65358;SDS011;52491;45.900;6.346;2023-01-24T13:38:34;4.75;;;3.40;;
65358;SDS011;52491;45.900;6.346;2023-01-24T13:43:54;4.88;;;3.53;;
65358;SDS011;52491;45.900;6.346;2023-01-24T13:49:19;3.47;;;3.00;;
65358;SDS011;52491;45.900;6.346;2023-01-24T13:52:00;3.15;;;2.28;;
65358;SDS011;52491;45.900;6.346;2023-01-24T13:54:34;2.70;;;2.30;;
65358;SDS011;52491;45.900;6.346;2023-01-24T14:02:36;3.05;;;2.65;;
65358;SDS011;52491;45.900;6.346;2023-01-24T14:05:32;4.30;;;2.90;;
65358;SDS011;52491;45.900;6.346;2023-01-24T14:07:56;3.50;;;2.63;;
65358;SDS011;52491;45.900;6.346;2023-01-24T14:10:33;4.47;;;2.92;;
65358;SDS011;52491;45.900;6.346;2023-01-24T14:13:01;2.55;;;2.28;;
65358;SDS011;52491;45.900;6.346;2023-01-24T14:15:28;4.60;;;2.80;;
65358;SDS011;52491;45.900;6.346;2023-01-24T14:18:01;3.78;;;3.33;;
65358;SDS011;52491;45.900;6.346;2023-01-24T14:20:38;3.20;;;2.67;;
65358;SDS011;52491;45.900;6.346;2023-01-24T14:23:29;3.10;;;2.75;;
65358;SDS011;52491;45.900;6.346;2023-01-24T14:25:55;3.15;;;2.83;;
65358;SDS011;52491;45.900;6.346;2023-01-24T14:37:02;4.70;;;2.53;;
65358;SDS011;52491;45.900;6.346;2023-01-24T14:39:33;3.50;;;2.47;;
65358;SDS011;52491;45.900;6.346;2023-01-24T14:42:02;3.20;;;2.90;;
65358;SDS011;52491;45.900;6.346;2023-01-24T14:44:37;4.05;;;2.80;;
65358;SDS011;52491;45.900;6.346;2023-01-24T14:49:44;3.92;;;2.95;;
65358;SDS011;52491;45.900;6.346;2023-01-24T14:52:16;2.72;;;2.50;;
65358;SDS011;52491;45.900;6.346;2023-01-24T14:54:52;2.88;;;2.63;;
65358;SDS011;52491;45.900;6.346;2023-01-24T14:57:22;2.78;;;2.38;;
65358;SDS011;52491;45.900;6.346;2023-01-24T15:02:54;2.83;;;2.58;;
65358;SDS011;52491;45.900;6.346;2023-01-24T15:07:54;2.92;;;2.63;;
65358;SDS011;52491;45.900;6.346;2023-01-24T15:10:25;3.70;;;3.17;;
65358;SDS011;52491;45.900;6.346;2023-01-24T15:12:53;2.55;;;2.33;;
65358;SDS011;52491;45.900;6.346;2023-01-24T15:15:21;3.65;;;3.13;;
65358;SDS011;52491;45.900;6.346;2023-01-24T15:17:48;2.58;;;2.38;;
65358;SDS011;52491;45.900;6.346;2023-01-24T15:20:23;3.00;;;2.60;;
65358;SDS011;52491;45.900;6.346;2023-01-24T15:22:50;3.13;;;2.83;;
65358;SDS011;52491;45.900;6.346;2023-01-24T15:25:25;3.22;;;2.70;;
65358;SDS011;52491;45.900;6.346;2023-01-24T15:27:53;3.05;;;2.78;;
65358;SDS011;52491;45.900;6.346;2023-01-24T15:30:20;3.38;;;3.08;;
65358;SDS011;52491;45.900;6.346;2023-01-24T15:32:47;3.15;;;2.85;;
65358;SDS011;52491;45.900;6.346;2023-01-24T15:41:35;4.18;;;3.78;;
65358;SDS011;52491;45.900;6.346;2023-01-24T15:43:40;4.78;;;3.97;;
65358;SDS011;52491;45.900;6.346;2023-01-24T15:48:59;5.00;;;4.50;;
65358;SDS011;52491;45.900;6.346;2023-01-24T15:51:32;4.18;;;3.78;;
65358;SDS011;52491;45.900;6.346;2023-01-24T15:53:59;5.75;;;4.60;;
65358;SDS011;52491;45.900;6.346;2023-01-24T15:56:25;4.40;;;4.00;;
65358;SDS011;52491;45.900;6.346;2023-01-24T15:58:52;4.35;;;3.95;;
65358;SDS011;52491;45.900;6.346;2023-01-24T16:01:18;5.78;;;4.55;;
65358;SDS011;52491;45.900;6.346;2023-01-24T16:03:44;5.10;;;4.38;;
65358;SDS011;52491;45.900;6.346;2023-01-24T16:06:09;7.38;;;5.30;;
65358;SDS011;52491;45.900;6.346;2023-01-24T16:08:35;5.00;;;4.60;;
65358;SDS011;52491;45.900;6.346;2023-01-24T16:11:00;6.78;;;5.63;;
65358;SDS011;52491;45.900;6.346;2023-01-24T16:13:31;5.57;;;5.05;;
65358;SDS011;52491;45.900;6.346;2023-01-24T16:16:06;8.43;;;6.30;;
65358;SDS011;52491;45.900;6.346;2023-01-24T16:18:35;7.10;;;5.78;;
65358;SDS011;52491;45.900;6.346;2023-01-24T16:21:01;7.25;;;6.40;;
65358;SDS011;52491;45.900;6.346;2023-01-24T16:23:27;7.15;;;5.57;;
65358;SDS011;52491;45.900;6.346;2023-01-24T16:25:54;5.75;;;5.07;;
65358;SDS011;52491;45.900;6.346;2023-01-24T16:28:24;6.30;;;5.65;;
65358;SDS011;52491;45.900;6.346;2023-01-24T16:30:53;7.53;;;6.47;;
65358;SDS011;52491;45.900;6.346;2023-01-24T16:33:24;6.82;;;5.43;;
65358;SDS011;52491;45.900;6.346;2023-01-24T16:35:49;8.57;;;6.20;;
65358;SDS011;52491;45.900;6.346;2023-01-24T16:38:15;10.45;;;7.82;;
65358;SDS011;52491;45.900;6.346;2023-01-24T16:40:41;8.93;;;7.00;;
65358;SDS011;52491;45.900;6.346;2023-01-24T16:43:07;8.20;;;6.15;;
65358;SDS011;52491;45.900;6.346;2023-01-24T16:45:36;9.43;;;8.45;;
65358;SDS011;52491;45.900;6.346;2023-01-24T16:48:02;11.98;;;9.80;;
65358;SDS011;52491;45.900;6.346;2023-01-24T16:50:29;12.95;;;9.52;;
65358;SDS011;52491;45.900;6.346;2023-01-24T16:52:57;12.43;;;9.57;;
65358;SDS011;52491;45.900;6.346;2023-01-24T16:55:22;12.07;;;9.38;;
65358;SDS011;52491;45.900;6.346;2023-01-24T16:57:48;10.68;;;8.38;;
65358;SDS011;52491;45.900;6.346;2023-01-24T17:00:13;10.75;;;9.63;;
65358;SDS011;52491;45.900;6.346;2023-01-24T17:02:42;11.90;;;9.18;;
65358;SDS011;52491;45.900;6.346;2023-01-24T17:05:09;11.90;;;9.35;;
65358;SDS011;52491;45.900;6.346;2023-01-24T17:07:36;13.45;;;10.90;;
65358;SDS011;52491;45.900;6.346;2023-01-24T17:10:02;12.23;;;9.80;;
65358;SDS011;52491;45.900;6.346;2023-01-24T17:12:28;13.10;;;9.55;;
65358;SDS011;52491;45.900;6.346;2023-01-24T17:14:54;11.73;;;9.52;;
65358;SDS011;52491;45.900;6.346;2023-01-24T17:17:20;14.35;;;10.43;;
65358;SDS011;52491;45.900;6.346;2023-01-24T17:19:46;11.10;;;8.95;;
65358;SDS011;52491;45.900;6.346;2023-01-24T17:22:11;9.85;;;8.77;;
65358;SDS011;52491;45.900;6.346;2023-01-24T17:24:37;12.32;;;9.15;;
65358;SDS011;52491;45.900;6.346;2023-01-24T17:27:02;11.82;;;9.93;;
65358;SDS011;52491;45.900;6.346;2023-01-24T17:29:28;12.48;;;10.25;;
65358;SDS011;52491;45.900;6.346;2023-01-24T17:31:54;11.00;;;9.90;;
65358;SDS011;52491;45.900;6.346;2023-01-24T17:34:21;9.73;;;8.73;;
65358;SDS011;52491;45.900;6.346;2023-01-24T17:36:47;11.63;;;9.82;;
65358;SDS011;52491;45.900;6.346;2023-01-24T17:39:12;28.27;;;11.13;;